sensor_id;sensor_type;location;lat;lon;timestamp;P1;durP1;ratioP1;P2;durP2;ratioP2
73627;SDS011;61923;51.846;5.856;2022-12-31T07:20:17;0.80;;;0.60;;
73627;SDS011;61923;51.846;5.856;2022-12-31T07:22:43;0.82;;;0.45;;
73627;SDS011;61923;51.846;5.856;2022-12-31T07:25:16;0.93;;;0.60;;
73627;SDS011;61923;51.846;5.856;2022-12-31T07:27:52;0.85;;;0.47;;
73627;SDS011;61923;51.846;5.856;2022-12-31T07:30:23;3.17;;;0.60;;
73627;SDS011;61923;51.846;5.856;2022-12-31T07:46:57;1.40;;;0.60;;
73627;SDS011;61923;51.846;5.856;2022-12-31T07:49:25;1.00;;;0.50;;
73627;SDS011;61923;51.846;5.856;2022-12-31T07:51:52;1.25;;;0.60;;
73627;SDS011;61923;51.846;5.856;2022-12-31T07:54:18;1.38;;;0.47;;
73627;SDS011;61923;51.846;5.856;2022-12-31T07:56:43;1.33;;;0.50;;
73627;SDS011;61923;51.846;5.856;2022-12-31T08:05:03;0.82;;;0.50;;
73627;SDS011;61923;51.846;5.856;2022-12-31T08:07:44;1.50;;;0.55;;
73627;SDS011;61923;51.846;5.856;2022-12-31T08:12:45;1.00;;;0.53;;
73627;SDS011;61923;51.846;5.856;2022-12-31T08:15:15;0.90;;;0.50;;
73627;SDS011;61923;51.846;5.856;2022-12-31T08:17:43;2.28;;;0.85;;
73627;SDS011;61923;51.846;5.856;2022-12-31T08:20:14;0.43;;;0.30;;
73627;SDS011;61923;51.846;5.856;2022-12-31T08:25:26;1.05;;;0.50;;
73627;SDS011;61923;51.846;5.856;2022-12-31T08:36:28;0.60;;;0.40;;
73627;SDS011;61923;51.846;5.856;2022-12-31T08:39:28;1.50;;;0.60;;
73627;SDS011;61923;51.846;5.856;2022-12-31T08:41:57;1.95;;;0.57;;
73627;SDS011;61923;51.846;5.856;2022-12-31T08:44:38;0.90;;;0.40;;
73627;SDS011;61923;51.846;5.856;2022-12-31T08:47:30;1.60;;;1.00;;
73627;SDS011;61923;51.846;5.856;2022-12-31T08:50:05;0.73;;;0.43;;
73627;SDS011;61923;51.846;5.856;2022-12-31T08:52:37;1.05;;;0.40;;
73627;SDS011;61923;51.846;5.856;2022-12-31T08:55:02;1.08;;;0.38;;
73627;SDS011;61923;51.846;5.856;2022-12-31T09:00:10;3.25;;;0.52;;
73627;SDS011;61923;51.846;5.856;2022-12-31T09:05:23;0.82;;;0.50;;
73627;SDS011;61923;51.846;5.856;2022-12-31T09:10:42;0.52;;;0.50;;
73627;SDS011;61923;51.846;5.856;2022-12-31T09:18:31;2.60;;;0.60;;
73627;SDS011;61923;51.846;5.856;2022-12-31T09:21:02;1.80;;;0.40;;
73627;SDS011;61923;51.846;5.856;2022-12-31T09:23:27;1.10;;;0.35;;
73627;SDS011;61923;51.846;5.856;2022-12-31T09:26:01;2.08;;;0.60;;
73627;SDS011;61923;51.846;5.856;2022-12-31T09:28:52;1.40;;;0.60;;
73627;SDS011;61923;51.846;5.856;2022-12-31T09:31:30;1.20;;;0.50;;
73627;SDS011;61923;51.846;5.856;2022-12-31T09:34:24;3.30;;;0.98;;
73627;SDS011;61923;51.846;5.856;2022-12-31T09:36:57;1.15;;;0.40;;
73627;SDS011;61923;51.846;5.856;2022-12-31T09:39:31;1.58;;;0.80;;
73627;SDS011;61923;51.846;5.856;2022-12-31T09:42:17;0.93;;;0.40;;
73627;SDS011;61923;51.846;5.856;2022-12-31T09:55:44;1.10;;;0.43;;
73627;SDS011;61923;51.846;5.856;2022-12-31T10:03:41;1.23;;;0.40;;
73627;SDS011;61923;51.846;5.856;2022-12-31T10:09:15;1.23;;;0.60;;
73627;SDS011;61923;51.846;5.856;2022-12-31T10:30:48;1.83;;;0.40;;
73627;SDS011;61923;51.846;5.856;2022-12-31T10:33:44;2.85;;;0.50;;
73627;SDS011;61923;51.846;5.856;2022-12-31T11:00:29;1.38;;;0.30;;
73627;SDS011;61923;51.846;5.856;2022-12-31T11:20:41;2.05;;;0.50;;
73627;SDS011;61923;51.846;5.856;2022-12-31T11:23:43;0.90;;;0.50;;
73627;SDS011;61923;51.846;5.856;2022-12-31T11:28:59;1.43;;;0.50;;
73627;SDS011;61923;51.846;5.856;2022-12-31T11:51:09;1.90;;;0.60;;
73627;SDS011;61923;51.846;5.856;2022-12-31T11:56:32;1.80;;;0.50;;
73627;SDS011;61923;51.846;5.856;2022-12-31T11:59:05;1.00;;;0.63;;
73627;SDS011;61923;51.846;5.856;2022-12-31T12:01:59;1.17;;;0.60;;
73627;SDS011;61923;51.846;5.856;2022-12-31T12:04:32;1.35;;;0.50;;
73627;SDS011;61923;51.846;5.856;2022-12-31T12:06:58;1.02;;;0.50;;
73627;SDS011;61923;51.846;5.856;2022-12-31T12:09:30;0.77;;;0.50;;
73627;SDS011;61923;51.846;5.856;2022-12-31T12:11:59;3.30;;;0.65;;
73627;SDS011;61923;51.846;5.856;2022-12-31T12:16:57;3.35;;;1.08;;
73627;SDS011;61923;51.846;5.856;2022-12-31T12:19:25;1.20;;;0.63;;
73627;SDS011;61923;51.846;5.856;2022-12-31T12:21:53;2.15;;;0.60;;
73627;SDS011;61923;51.846;5.856;2022-12-31T12:24:21;0.98;;;0.60;;
73627;SDS011;61923;51.846;5.856;2022-12-31T12:26:51;1.88;;;0.80;;
73627;SDS011;61923;51.846;5.856;2022-12-31T12:29:17;0.95;;;0.60;;
73627;SDS011;61923;51.846;5.856;2022-12-31T12:34:35;3.13;;;0.70;;
73627;SDS011;61923;51.846;5.856;2022-12-31T12:37:02;1.30;;;0.85;;
73627;SDS011;61923;51.846;5.856;2022-12-31T12:39:30;1.20;;;0.70;;
73627;SDS011;61923;51.846;5.856;2022-12-31T12:42:08;1.70;;;0.70;;
73627;SDS011;61923;51.846;5.856;2022-12-31T12:44:36;2.80;;;0.80;;
73627;SDS011;61923;51.846;5.856;2022-12-31T12:47:02;1.40;;;0.77;;
73627;SDS011;61923;51.846;5.856;2022-12-31T12:49:31;0.95;;;0.52;;
73627;SDS011;61923;51.846;5.856;2022-12-31T12:57:41;2.63;;;0.65;;
73627;SDS011;61923;51.846;5.856;2022-12-31T13:06:16;1.35;;;0.70;;
73627;SDS011;61923;51.846;5.856;2022-12-31T13:14:15;2.30;;;0.70;;
73627;SDS011;61923;51.846;5.856;2022-12-31T13:30:05;1.63;;;1.02;;
73627;SDS011;61923;51.846;5.856;2022-12-31T13:32:45;1.08;;;0.57;;
73627;SDS011;61923;51.846;5.856;2022-12-31T13:35:24;4.75;;;0.80;;
73627;SDS011;61923;51.846;5.856;2022-12-31T13:38:03;1.83;;;0.73;;
73627;SDS011;61923;51.846;5.856;2022-12-31T13:40:43;1.05;;;0.60;;
73627;SDS011;61923;51.846;5.856;2022-12-31T13:43:17;3.25;;;1.00;;
73627;SDS011;61923;51.846;5.856;2022-12-31T13:45:53;1.48;;;0.55;;
73627;SDS011;61923;51.846;5.856;2022-12-31T13:48:29;2.53;;;1.10;;
73627;SDS011;61923;51.846;5.856;2022-12-31T13:51:03;1.33;;;0.80;;
73627;SDS011;61923;51.846;5.856;2022-12-31T13:56:35;1.13;;;0.70;;
73627;SDS011;61923;51.846;5.856;2022-12-31T13:59:16;2.75;;;0.68;;
73627;SDS011;61923;51.846;5.856;2022-12-31T14:04:49;2.42;;;0.82;;
73627;SDS011;61923;51.846;5.856;2022-12-31T14:07:37;2.33;;;0.60;;
73627;SDS011;61923;51.846;5.856;2022-12-31T14:10:11;1.60;;;0.75;;
73627;SDS011;61923;51.846;5.856;2022-12-31T14:12:51;2.05;;;0.90;;
73627;SDS011;61923;51.846;5.856;2022-12-31T14:20:37;5.63;;;1.20;;
73627;SDS011;61923;51.846;5.856;2022-12-31T14:25:55;3.13;;;0.80;;
73627;SDS011;61923;51.846;5.856;2022-12-31T14:28:37;4.18;;;0.80;;
73627;SDS011;61923;51.846;5.856;2022-12-31T14:31:14;3.63;;;0.90;;
73627;SDS011;61923;51.846;5.856;2022-12-31T14:33:53;1.42;;;0.60;;
73627;SDS011;61923;51.846;5.856;2022-12-31T14:39:11;3.03;;;0.73;;
73627;SDS011;61923;51.846;5.856;2022-12-31T14:44:45;3.75;;;0.90;;
73627;SDS011;61923;51.846;5.856;2022-12-31T14:50:28;2.25;;;0.95;;
73627;SDS011;61923;51.846;5.856;2022-12-31T14:57:59;1.85;;;0.85;;
73627;SDS011;61923;51.846;5.856;2022-12-31T15:00:32;2.65;;;0.93;;
73627;SDS011;61923;51.846;5.856;2022-12-31T15:03:06;5.55;;;1.13;;
73627;SDS011;61923;51.846;5.856;2022-12-31T15:05:51;2.33;;;0.80;;
73627;SDS011;61923;51.846;5.856;2022-12-31T15:09:01;2.42;;;1.00;;
73627;SDS011;61923;51.846;5.856;2022-12-31T15:14:18;1.77;;;0.80;;
73627;SDS011;61923;51.846;5.856;2022-12-31T15:25:02;2.67;;;0.98;;
73627;SDS011;61923;51.846;5.856;2022-12-31T15:27:44;4.43;;;0.98;;
73627;SDS011;61923;51.846;5.856;2022-12-31T15:30:29;2.88;;;1.27;;
73627;SDS011;61923;51.846;5.856;2022-12-31T15:33:06;2.58;;;0.90;;
73627;SDS011;61923;51.846;5.856;2022-12-31T15:35:48;2.28;;;0.93;;
73627;SDS011;61923;51.846;5.856;2022-12-31T15:40:58;2.17;;;0.70;;
73627;SDS011;61923;51.846;5.856;2022-12-31T15:46:08;2.10;;;0.90;;
73627;SDS011;61923;51.846;5.856;2022-12-31T15:48:45;3.92;;;1.08;;
73627;SDS011;61923;51.846;5.856;2022-12-31T15:51:27;3.50;;;0.90;;
73627;SDS011;61923;51.846;5.856;2022-12-31T15:53:56;3.28;;;1.02;;
73627;SDS011;61923;51.846;5.856;2022-12-31T15:59:04;2.03;;;0.90;;
73627;SDS011;61923;51.846;5.856;2022-12-31T16:01:35;2.63;;;1.00;;
73627;SDS011;61923;51.846;5.856;2022-12-31T16:04:04;2.95;;;1.38;;
73627;SDS011;61923;51.846;5.856;2022-12-31T16:06:36;3.55;;;1.00;;
73627;SDS011;61923;51.846;5.856;2022-12-31T16:11:33;2.20;;;0.90;;
73627;SDS011;61923;51.846;5.856;2022-12-31T16:14:01;2.58;;;0.90;;
73627;SDS011;61923;51.846;5.856;2022-12-31T16:16:28;3.22;;;1.10;;
73627;SDS011;61923;51.846;5.856;2022-12-31T16:18:56;4.47;;;1.27;;
73627;SDS011;61923;51.846;5.856;2022-12-31T16:21:23;4.03;;;1.20;;
73627;SDS011;61923;51.846;5.856;2022-12-31T16:24:03;3.45;;;1.00;;
73627;SDS011;61923;51.846;5.856;2022-12-31T16:26:31;2.55;;;0.80;;
73627;SDS011;61923;51.846;5.856;2022-12-31T16:29:03;1.73;;;1.08;;
73627;SDS011;61923;51.846;5.856;2022-12-31T16:31:37;1.70;;;1.02;;
73627;SDS011;61923;51.846;5.856;2022-12-31T16:34:11;2.95;;;1.15;;
73627;SDS011;61923;51.846;5.856;2022-12-31T16:36:39;3.03;;;1.00;;
73627;SDS011;61923;51.846;5.856;2022-12-31T16:39:20;2.08;;;0.85;;
73627;SDS011;61923;51.846;5.856;2022-12-31T16:41:51;2.45;;;1.02;;
73627;SDS011;61923;51.846;5.856;2022-12-31T16:44:30;2.60;;;1.08;;
73627;SDS011;61923;51.846;5.856;2022-12-31T16:46:57;3.60;;;1.30;;
73627;SDS011;61923;51.846;5.856;2022-12-31T16:49:24;2.92;;;1.20;;
73627;SDS011;61923;51.846;5.856;2022-12-31T16:51:53;2.55;;;1.10;;
73627;SDS011;61923;51.846;5.856;2022-12-31T16:54:33;3.03;;;1.00;;
73627;SDS011;61923;51.846;5.856;2022-12-31T16:57:01;2.25;;;1.13;;
73627;SDS011;61923;51.846;5.856;2022-12-31T16:59:30;2.15;;;1.10;;
73627;SDS011;61923;51.846;5.856;2022-12-31T17:02:02;4.20;;;1.30;;
73627;SDS011;61923;51.846;5.856;2022-12-31T17:04:34;3.25;;;1.10;;
73627;SDS011;61923;51.846;5.856;2022-12-31T17:12:31;4.53;;;1.27;;
73627;SDS011;61923;51.846;5.856;2022-12-31T17:15:02;3.17;;;1.40;;
73627;SDS011;61923;51.846;5.856;2022-12-31T17:17:29;2.40;;;1.20;;
73627;SDS011;61923;51.846;5.856;2022-12-31T17:20:03;2.88;;;1.15;;
73627;SDS011;61923;51.846;5.856;2022-12-31T17:22:31;4.13;;;1.20;;
73627;SDS011;61923;51.846;5.856;2022-12-31T17:27:33;3.72;;;1.40;;
73627;SDS011;61923;51.846;5.856;2022-12-31T17:32:44;3.35;;;1.30;;
73627;SDS011;61923;51.846;5.856;2022-12-31T17:35:28;2.33;;;1.17;;
73627;SDS011;61923;51.846;5.856;2022-12-31T17:38:14;4.20;;;1.38;;
73627;SDS011;61923;51.846;5.856;2022-12-31T17:40:46;4.47;;;1.35;;
73627;SDS011;61923;51.846;5.856;2022-12-31T17:43:12;3.20;;;1.20;;
73627;SDS011;61923;51.846;5.856;2022-12-31T17:45:39;4.00;;;1.38;;
73627;SDS011;61923;51.846;5.856;2022-12-31T17:48:08;2.83;;;1.33;;
73627;SDS011;61923;51.846;5.856;2022-12-31T17:50:44;2.35;;;1.30;;
73627;SDS011;61923;51.846;5.856;2022-12-31T17:53:11;2.38;;;1.40;;
73627;SDS011;61923;51.846;5.856;2022-12-31T17:55:37;3.08;;;1.40;;
73627;SDS011;61923;51.846;5.856;2022-12-31T17:58:04;4.38;;;1.35;;
73627;SDS011;61923;51.846;5.856;2022-12-31T18:00:30;2.47;;;1.25;;
73627;SDS011;61923;51.846;5.856;2022-12-31T18:02:59;2.92;;;1.42;;
73627;SDS011;61923;51.846;5.856;2022-12-31T18:05:25;3.90;;;1.50;;
73627;SDS011;61923;51.846;5.856;2022-12-31T18:07:51;3.22;;;1.35;;
73627;SDS011;61923;51.846;5.856;2022-12-31T18:10:17;2.63;;;1.70;;
73627;SDS011;61923;51.846;5.856;2022-12-31T18:12:44;2.80;;;1.25;;
73627;SDS011;61923;51.846;5.856;2022-12-31T18:15:15;3.25;;;1.30;;
73627;SDS011;61923;51.846;5.856;2022-12-31T18:17:42;3.00;;;1.45;;
73627;SDS011;61923;51.846;5.856;2022-12-31T18:20:08;3.58;;;1.52;;
73627;SDS011;61923;51.846;5.856;2022-12-31T18:24:59;3.53;;;1.30;;
73627;SDS011;61923;51.846;5.856;2022-12-31T18:27:25;2.58;;;1.48;;
73627;SDS011;61923;51.846;5.856;2022-12-31T18:29:51;2.97;;;1.50;;
73627;SDS011;61923;51.846;5.856;2022-12-31T18:32:23;4.40;;;1.63;;
73627;SDS011;61923;51.846;5.856;2022-12-31T18:34:50;3.33;;;1.33;;
73627;SDS011;61923;51.846;5.856;2022-12-31T18:37:16;2.45;;;1.45;;
73627;SDS011;61923;51.846;5.856;2022-12-31T18:39:42;3.88;;;1.35;;
73627;SDS011;61923;51.846;5.856;2022-12-31T18:42:11;5.40;;;1.60;;
73627;SDS011;61923;51.846;5.856;2022-12-31T18:44:39;2.60;;;1.20;;
73627;SDS011;61923;51.846;5.856;2022-12-31T18:47:09;3.85;;;1.58;;
73627;SDS011;61923;51.846;5.856;2022-12-31T18:49:36;3.38;;;1.55;;
73627;SDS011;61923;51.846;5.856;2022-12-31T18:52:02;3.60;;;1.40;;
73627;SDS011;61923;51.846;5.856;2022-12-31T18:54:27;4.40;;;1.40;;
73627;SDS011;61923;51.846;5.856;2022-12-31T18:56:52;3.40;;;1.30;;
73627;SDS011;61923;51.846;5.856;2022-12-31T18:59:18;3.45;;;1.40;;
73627;SDS011;61923;51.846;5.856;2022-12-31T19:01:43;2.10;;;1.23;;
73627;SDS011;61923;51.846;5.856;2022-12-31T19:06:38;4.97;;;1.77;;
73627;SDS011;61923;51.846;5.856;2022-12-31T19:09:04;3.40;;;1.48;;
73627;SDS011;61923;51.846;5.856;2022-12-31T19:11:30;2.95;;;1.35;;
73627;SDS011;61923;51.846;5.856;2022-12-31T19:13:57;4.13;;;1.85;;
73627;SDS011;61923;51.846;5.856;2022-12-31T19:16:23;2.92;;;1.45;;
73627;SDS011;61923;51.846;5.856;2022-12-31T19:18:48;3.92;;;1.63;;
73627;SDS011;61923;51.846;5.856;2022-12-31T19:21:21;3.00;;;1.48;;
73627;SDS011;61923;51.846;5.856;2022-12-31T19:23:47;2.72;;;1.70;;
73627;SDS011;61923;51.846;5.856;2022-12-31T19:26:14;3.03;;;1.63;;
73627;SDS011;61923;51.846;5.856;2022-12-31T19:28:41;4.03;;;1.65;;
73627;SDS011;61923;51.846;5.856;2022-12-31T19:31:10;2.88;;;1.50;;
73627;SDS011;61923;51.846;5.856;2022-12-31T19:33:37;3.72;;;1.80;;
73627;SDS011;61923;51.846;5.856;2022-12-31T19:36:03;4.38;;;2.08;;
73627;SDS011;61923;51.846;5.856;2022-12-31T19:38:37;3.47;;;1.63;;
73627;SDS011;61923;51.846;5.856;2022-12-31T19:41:02;2.67;;;1.60;;
73627;SDS011;61923;51.846;5.856;2022-12-31T19:43:28;2.90;;;1.58;;
73627;SDS011;61923;51.846;5.856;2022-12-31T19:45:54;3.40;;;1.83;;
73627;SDS011;61923;51.846;5.856;2022-12-31T19:48:20;2.80;;;1.63;;
73627;SDS011;61923;51.846;5.856;2022-12-31T19:50:48;3.58;;;1.60;;
73627;SDS011;61923;51.846;5.856;2022-12-31T19:53:16;3.45;;;1.92;;
73627;SDS011;61923;51.846;5.856;2022-12-31T19:55:45;3.63;;;1.83;;
73627;SDS011;61923;51.846;5.856;2022-12-31T19:58:14;4.78;;;1.92;;
73627;SDS011;61923;51.846;5.856;2022-12-31T20:00:43;4.80;;;2.20;;
73627;SDS011;61923;51.846;5.856;2022-12-31T20:03:10;5.88;;;1.70;;
73627;SDS011;61923;51.846;5.856;2022-12-31T20:05:36;3.40;;;1.77;;
73627;SDS011;61923;51.846;5.856;2022-12-31T20:08:01;2.95;;;1.83;;
73627;SDS011;61923;51.846;5.856;2022-12-31T20:10:27;2.78;;;1.70;;
73627;SDS011;61923;51.846;5.856;2022-12-31T20:12:52;5.22;;;2.30;;
73627;SDS011;61923;51.846;5.856;2022-12-31T20:15:18;2.87;;;1.80;;
73627;SDS011;61923;51.846;5.856;2022-12-31T20:17:47;4.50;;;2.17;;
73627;SDS011;61923;51.846;5.856;2022-12-31T20:20:12;3.17;;;1.75;;
73627;SDS011;61923;51.846;5.856;2022-12-31T20:22:38;5.70;;;1.95;;
73627;SDS011;61923;51.846;5.856;2022-12-31T20:25:03;4.00;;;2.13;;
73627;SDS011;61923;51.846;5.856;2022-12-31T20:27:29;3.58;;;1.88;;
73627;SDS011;61923;51.846;5.856;2022-12-31T20:29:55;3.70;;;1.77;;
73627;SDS011;61923;51.846;5.856;2022-12-31T20:32:20;3.00;;;2.00;;
73627;SDS011;61923;51.846;5.856;2022-12-31T20:34:46;4.05;;;2.25;;
73627;SDS011;61923;51.846;5.856;2022-12-31T20:37:11;3.28;;;2.03;;
73627;SDS011;61923;51.846;5.856;2022-12-31T20:39:37;4.65;;;2.10;;
73627;SDS011;61923;51.846;5.856;2022-12-31T20:42:02;4.47;;;2.20;;
73627;SDS011;61923;51.846;5.856;2022-12-31T20:44:28;4.15;;;2.20;;
73627;SDS011;61923;51.846;5.856;2022-12-31T20:46:53;3.95;;;2.47;;
73627;SDS011;61923;51.846;5.856;2022-12-31T20:49:19;3.63;;;2.03;;
73627;SDS011;61923;51.846;5.856;2022-12-31T20:51:44;3.83;;;2.20;;
73627;SDS011;61923;51.846;5.856;2022-12-31T20:54:10;4.75;;;2.15;;
73627;SDS011;61923;51.846;5.856;2022-12-31T20:56:36;3.22;;;2.05;;
73627;SDS011;61923;51.846;5.856;2022-12-31T20:59:03;4.00;;;2.33;;
73627;SDS011;61923;51.846;5.856;2022-12-31T21:01:29;4.18;;;2.17;;
73627;SDS011;61923;51.846;5.856;2022-12-31T21:03:55;3.78;;;2.22;;
73627;SDS011;61923;51.846;5.856;2022-12-31T21:06:22;3.53;;;2.10;;
73627;SDS011;61923;51.846;5.856;2022-12-31T21:08:48;3.83;;;1.95;;
73627;SDS011;61923;51.846;5.856;2022-12-31T21:11:14;4.40;;;2.10;;
73627;SDS011;61923;51.846;5.856;2022-12-31T21:13:58;3.95;;;2.13;;
73627;SDS011;61923;51.846;5.856;2022-12-31T21:16:25;4.40;;;2.03;;
73627;SDS011;61923;51.846;5.856;2022-12-31T21:21:16;3.25;;;2.28;;
73627;SDS011;61923;51.846;5.856;2022-12-31T21:23:42;4.10;;;2.22;;
73627;SDS011;61923;51.846;5.856;2022-12-31T21:26:07;3.72;;;2.25;;
73627;SDS011;61923;51.846;5.856;2022-12-31T21:28:33;4.20;;;2.25;;
73627;SDS011;61923;51.846;5.856;2022-12-31T21:31:03;3.63;;;2.55;;
73627;SDS011;61923;51.846;5.856;2022-12-31T21:33:31;4.22;;;2.60;;
73627;SDS011;61923;51.846;5.856;2022-12-31T21:35:56;6.03;;;2.47;;
73627;SDS011;61923;51.846;5.856;2022-12-31T21:38:22;4.63;;;2.85;;
73627;SDS011;61923;51.846;5.856;2022-12-31T21:40:48;5.85;;;2.00;;
73627;SDS011;61923;51.846;5.856;2022-12-31T21:43:13;3.63;;;2.40;;
73627;SDS011;61923;51.846;5.856;2022-12-31T21:48:05;4.32;;;2.40;;
73627;SDS011;61923;51.846;5.856;2022-12-31T21:50:44;4.90;;;2.30;;
73627;SDS011;61923;51.846;5.856;2022-12-31T21:53:14;4.43;;;2.45;;
73627;SDS011;61923;51.846;5.856;2022-12-31T21:55:40;4.82;;;2.65;;
73627;SDS011;61923;51.846;5.856;2022-12-31T21:58:24;8.35;;;2.60;;
73627;SDS011;61923;51.846;5.856;2022-12-31T22:03:34;5.63;;;2.40;;
73627;SDS011;61923;51.846;5.856;2022-12-31T22:06:01;4.97;;;2.60;;
73627;SDS011;61923;51.846;5.856;2022-12-31T22:08:41;4.78;;;2.63;;
73627;SDS011;61923;51.846;5.856;2022-12-31T22:13:34;3.42;;;2.35;;
73627;SDS011;61923;51.846;5.856;2022-12-31T22:16:00;4.03;;;2.40;;
73627;SDS011;61923;51.846;5.856;2022-12-31T22:18:26;6.18;;;2.47;;
73627;SDS011;61923;51.846;5.856;2022-12-31T22:23:38;5.53;;;2.28;;
73627;SDS011;61923;51.846;5.856;2022-12-31T22:26:05;5.43;;;2.70;;
73627;SDS011;61923;51.846;5.856;2022-12-31T22:28:31;4.68;;;2.67;;
73627;SDS011;61923;51.846;5.856;2022-12-31T22:30:57;5.75;;;2.42;;
73627;SDS011;61923;51.846;5.856;2022-12-31T22:33:23;4.93;;;2.67;;
73627;SDS011;61923;51.846;5.856;2022-12-31T22:38:25;5.13;;;2.90;;
73627;SDS011;61923;51.846;5.856;2022-12-31T22:40:59;5.10;;;3.10;;
73627;SDS011;61923;51.846;5.856;2022-12-31T22:43:30;5.05;;;2.72;;
73627;SDS011;61923;51.846;5.856;2022-12-31T22:45:56;4.25;;;2.47;;
73627;SDS011;61923;51.846;5.856;2022-12-31T22:48:22;5.57;;;2.20;;
73627;SDS011;61923;51.846;5.856;2022-12-31T22:50:54;6.22;;;3.13;;
73627;SDS011;61923;51.846;5.856;2022-12-31T22:53:22;4.40;;;2.80;;
73627;SDS011;61923;51.846;5.856;2022-12-31T22:55:48;7.22;;;2.60;;
73627;SDS011;61923;51.846;5.856;2022-12-31T22:58:14;5.70;;;3.00;;
73627;SDS011;61923;51.846;5.856;2022-12-31T23:00:40;4.43;;;2.35;;
73627;SDS011;61923;51.846;5.856;2022-12-31T23:03:06;4.68;;;2.83;;
73627;SDS011;61923;51.846;5.856;2022-12-31T23:05:32;7.13;;;2.88;;
73627;SDS011;61923;51.846;5.856;2022-12-31T23:07:59;6.00;;;3.05;;
73627;SDS011;61923;51.846;5.856;2022-12-31T23:10:25;7.55;;;3.17;;
73627;SDS011;61923;51.846;5.856;2022-12-31T23:13:09;4.70;;;3.15;;
73627;SDS011;61923;51.846;5.856;2022-12-31T23:15:53;7.90;;;3.83;;
73627;SDS011;61923;51.846;5.856;2022-12-31T23:18:37;6.57;;;3.92;;
73627;SDS011;61923;51.846;5.856;2022-12-31T23:21:21;7.95;;;4.10;;
73627;SDS011;61923;51.846;5.856;2022-12-31T23:24:05;8.40;;;4.38;;
73627;SDS011;61923;51.846;5.856;2022-12-31T23:26:30;9.82;;;5.20;;
73627;SDS011;61923;51.846;5.856;2022-12-31T23:28:55;9.23;;;4.67;;
73627;SDS011;61923;51.846;5.856;2022-12-31T23:31:21;8.23;;;5.07;;
73627;SDS011;61923;51.846;5.856;2022-12-31T23:33:46;8.38;;;4.88;;
73627;SDS011;61923;51.846;5.856;2022-12-31T23:36:12;9.55;;;5.28;;
73627;SDS011;61923;51.846;5.856;2022-12-31T23:38:37;10.80;;;5.93;;
73627;SDS011;61923;51.846;5.856;2022-12-31T23:41:15;9.70;;;5.65;;
73627;SDS011;61923;51.846;5.856;2022-12-31T23:43:43;9.43;;;6.60;;
73627;SDS011;61923;51.846;5.856;2022-12-31T23:46:10;12.65;;;6.20;;
73627;SDS011;61923;51.846;5.856;2022-12-31T23:48:36;11.65;;;6.35;;
73627;SDS011;61923;51.846;5.856;2022-12-31T23:51:01;8.57;;;6.07;;
73627;SDS011;61923;51.846;5.856;2022-12-31T23:53:27;12.60;;;6.53;;
73627;SDS011;61923;51.846;5.856;2022-12-31T23:55:52;12.07;;;6.20;;
